Time;durP1;ratioP1;P1;durP2;ratioP2;P2;SDS_P1;SDS_P2;PMS_P1;PMS_P2;Temp;Humidity;BMP_temperature;BMP_pressure;BME280_temperature;BME280_humidity;BME280_pressure;Samples;Min_cycle;Max_cycle;Signal;HPM_P1;HPM_P2
2022/10/31 00:02:04;;;;;;;10.00;9.40;;;;;;;14.29;58.70;93312.72;5091646;28;20940;-68
2022/10/31 00:04:30;;;;;;;9.97;9.27;;;;;;;14.30;57.98;93299.31;5091253;28;20212;-68
2022/10/31 00:06:55;;;;;;;8.70;8.20;;;;;;;14.28;58.33;93298.84;5091659;28;20189;-69
2022/10/31 00:09:20;;;;;;;9.63;8.93;;;;;;;14.27;58.92;93299.13;5091328;28;20243;-69
2022/10/31 00:11:46;;;;;;;9.73;9.13;;;;;;;14.07;61.12;93289.63;5092704;28;20181;-68
2022/10/31 00:14:11;;;;;;;9.80;9.00;;;;;;;13.95;60.30;93291.09;5078573;28;20248;-68
2022/10/31 00:16:36;;;;;;;9.33;8.63;;;;;;;13.90;60.87;93305.06;5071554;28;20181;-68
2022/10/31 00:19:05;;;;;;;10.60;9.60;;;;;;;13.64;61.79;93274.94;5076223;28;20220;-68
2022/10/31 00:21:32;;;;;;;10.70;9.47;;;;;;;13.62;62.87;93292.81;5083108;28;20204;-68
2022/10/31 00:23:58;;;;;;;9.97;9.27;;;;;;;13.55;63.29;93289.75;5074311;28;20248;-68
2022/10/31 00:26:24;;;;;;;9.13;8.63;;;;;;;13.39;64.08;93284.94;5071118;28;20212;-67
2022/10/31 00:28:50;;;;;;;9.40;8.90;;;;;;;13.40;64.65;93303.00;5078732;28;20280;-68
2022/10/31 00:31:17;;;;;;;9.83;9.23;;;;;;;13.24;65.28;93306.06;5091864;28;20296;-69
2022/10/31 00:33:42;;;;;;;9.57;8.77;;;;;;;13.24;65.45;93304.25;5089672;28;20291;-68
2022/10/31 00:36:14;;;;;;;10.83;9.90;;;;;;;13.14;65.37;93312.19;5091373;28;20196;-68
2022/10/31 00:38:41;;;;;;;10.40;9.70;;;;;;;13.03;65.70;93305.47;5090843;28;20235;-69
2022/10/31 00:41:06;;;;;;;9.77;9.17;;;;;;;12.93;66.70;93297.69;5094048;28;20204;-69
2022/10/31 00:43:32;;;;;;;9.13;8.63;;;;;;;12.91;67.16;93297.97;5086530;28;20221;-69
2022/10/31 00:45:57;;;;;;;9.83;9.23;;;;;;;12.91;66.69;93295.34;5080214;28;20161;-69
2022/10/31 00:48:22;;;;;;;9.53;8.73;;;;;;;12.71;67.54;93273.75;5077121;28;20297;-69
2022/10/31 00:50:48;;;;;;;9.27;8.70;;;;;;;12.82;67.97;93289.09;5070976;28;20193;-68
2022/10/31 00:53:13;;;;;;;10.43;9.63;;;;;;;12.81;67.79;93290.19;5072895;28;20699;-68
2022/10/31 00:55:38;;;;;;;9.50;8.70;;;;;;;12.81;67.83;93287.56;5079434;28;20186;-68
2022/10/31 00:58:04;;;;;;;10.10;9.23;;;;;;;12.76;68.11;93278.97;5079979;28;20240;-69
2022/10/31 01:00:29;;;;;;;10.00;9.50;;;;;;;12.89;68.27;93299.28;5070978;28;20189;-70
2022/10/31 01:02:54;;;;;;;11.53;10.27;;;;;;;12.69;68.24;93278.50;5070097;28;20201;-69
2022/10/31 01:05:20;;;;;;;9.50;8.90;;;;;;;12.68;69.06;93300.50;5070529;28;20185;-68
2022/10/31 01:07:45;;;;;;;9.23;8.63;;;;;;;12.59;69.34;93289.06;5068645;28;20189;-69
2022/10/31 01:10:11;;;;;;;9.97;9.23;;;;;;;12.61;69.25;93297.41;5069433;28;20197;-69
2022/10/31 01:12:37;;;;;;;10.10;9.50;;;;;;;12.53;69.48;93292.75;5068889;28;20182;-68
2022/10/31 01:15:04;;;;;;;9.70;9.10;;;;;;;12.53;69.87;93277.81;5089916;28;20224;-69
2022/10/31 01:17:29;;;;;;;10.23;9.57;;;;;;;12.67;69.74;93296.31;5090052;28;20273;-69
2022/10/31 01:19:54;;;;;;;9.33;8.70;;;;;;;12.46;71.11;93302.75;5090592;28;20220;-68
2022/10/31 01:22:20;;;;;;;10.53;9.57;;;;;;;12.36;71.61;93300.19;5090014;28;20200;-69
2022/10/31 01:24:45;;;;;;;9.83;9.43;;;;;;;12.23;72.22;93300.81;5089924;28;20233;-69
2022/10/31 01:27:10;;;;;;;9.67;8.93;;;;;;;12.26;71.80;93302.91;5089545;28;20200;-70
2022/10/31 01:29:36;;;;;;;10.17;9.40;;;;;;;12.38;71.91;93313.81;5082266;28;20220;-69
2022/10/31 01:32:01;;;;;;;10.07;9.47;;;;;;;12.24;72.69;93299.75;5076484;28;20265;-68
2022/10/31 01:34:27;;;;;;;10.10;9.30;;;;;;;12.29;72.06;93299.75;5071607;28;20225;-69
2022/10/31 01:36:52;;;;;;;9.97;9.37;;;;;;;12.40;71.83;93312.50;5068071;28;20268;-68
2022/10/31 01:39:19;;;;;;;8.83;8.43;;;;;;;12.55;71.71;93308.97;5074910;28;20217;-69
2022/10/31 01:41:47;;;;;;;8.87;8.37;;;;;;;12.59;71.26;93307.41;5080353;28;20212;-69
2022/10/31 01:44:13;;;;;;;10.77;9.97;;;;;;;12.62;71.46;93312.84;5087566;28;20216;-68
2022/10/31 01:46:52;;;;;;;9.90;9.30;;;;;;;12.72;71.46;93312.78;5090426;28;20212;-69
2022/10/31 01:49:32;;;;;;;10.03;9.43;;;;;;;12.68;71.95;93303.13;5076398;28;20310;-69
2022/10/31 01:52:00;;;;;;;10.77;9.73;;;;;;;12.75;71.87;93309.63;5067628;28;20257;-69
2022/10/31 01:54:31;;;;;;;10.70;9.90;;;;;;;12.82;71.40;93319.78;5083876;28;20236;-69
2022/10/31 01:56:59;;;;;;;9.43;8.83;;;;;;;12.82;71.90;93319.78;5090397;28;20212;-69
2022/10/31 01:59:28;;;;;;;9.87;9.03;;;;;;;12.90;71.67;93312.09;5082945;28;20259;-69
2022/10/31 02:01:53;;;;;;;11.70;10.77;;;;;;;12.93;71.40;93314.19;5079339;28;20212;-68
2022/10/31 02:04:20;;;;;;;10.47;9.67;;;;;;;12.94;70.98;93315.75;5071762;28;20957;-68
2022/10/31 02:07:00;;;;;;;10.10;9.40;;;;;;;12.92;71.14;93301.34;5069128;28;20185;-69
2022/10/31 02:09:26;;;;;;;10.03;9.10;;;;;;;13.06;70.99;93307.53;5068706;28;20249;-68
2022/10/31 02:11:54;;;;;;;9.83;9.13;;;;;;;12.95;70.52;93290.31;5069816;28;20252;-69
2022/10/31 02:14:26;;;;;;;10.57;9.87;;;;;;;13.17;69.68;93309.03;5068750;28;20225;-69
2022/10/31 02:16:53;;;;;;;13.87;9.73;;;;;;;13.30;69.72;93312.81;5069142;28;20214;-70
2022/10/31 02:19:43;;;;;;;11.43;10.30;;;;;;;13.22;69.93;93306.34;5074811;28;20252;-69
2022/10/31 02:22:20;;;;;;;10.20;9.17;;;;;;;13.18;70.66;93307.97;5057991;28;20233;-68
2022/10/31 02:25:19;;;;;;;10.87;10.00;;;;;;;13.14;71.74;93314.81;5068979;28;20229;-68
2022/10/31 02:28:00;;;;;;;9.30;8.60;;;;;;;13.10;71.38;93308.56;5068561;28;20192;-67
2022/10/31 02:30:40;;;;;;;10.20;9.50;;;;;;;13.14;70.95;93317.44;5089150;28;20184;-66
2022/10/31 02:33:18;;;;;;;10.40;9.50;;;;;;;13.07;72.01;93314.38;5088978;28;20232;-67
2022/10/31 02:35:49;;;;;;;11.03;10.23;;;;;;;13.06;71.43;93325.91;5088401;28;20202;-67
2022/10/31 02:38:24;;;;;;;10.03;9.47;;;;;;;13.04;72.47;93327.25;5086925;28;20236;-66
2022/10/31 02:41:31;;;;;;;10.33;9.70;;;;;;;13.07;71.47;93332.72;5080089;28;20216;-67
2022/10/31 02:44:15;;;;;;;10.77;10.07;;;;;;;13.11;71.17;93341.59;5071603;28;20232;-67
2022/10/31 02:46:53;;;;;;;10.87;10.17;;;;;;;13.20;70.72;93341.78;5069371;28;20185;-67
2022/10/31 02:49:27;;;;;;;10.97;10.17;;;;;;;13.11;70.30;93346.03;5067990;28;20221;-67
2022/10/31 02:51:53;;;;;;;10.97;10.17;;;;;;;13.02;71.39;93353.72;5068079;28;20198;-67
2022/10/31 02:54:25;;;;;;;12.07;11.13;;;;;;;12.95;68.77;93340.09;5068087;28;20232;-66
2022/10/31 02:56:56;;;;;;;11.30;10.17;;;;;;;13.09;68.98;93346.31;5068366;28;20217;-67
2022/10/31 02:59:23;;;;;;;11.50;10.43;;;;;;;13.20;69.38;93347.78;5068516;28;20236;-67
2022/10/31 03:01:51;;;;;;;10.93;10.23;;;;;;;13.12;69.20;93343.13;5068886;28;20261;-67
2022/10/31 03:04:38;;;;;;;11.43;10.30;;;;;;;13.09;69.01;93335.06;5067741;28;20238;-67
2022/10/31 03:07:19;;;;;;;10.03;9.33;;;;;;;13.25;68.88;93344.34;5068705;28;20181;-66
2022/10/31 03:10:00;;;;;;;11.37;10.60;;;;;;;13.30;68.85;93352.97;5067528;28;20221;-67
2022/10/31 03:12:38;;;;;;;11.03;10.13;;;;;;;13.34;69.02;93351.34;5068096;28;20263;-68
2022/10/31 03:15:25;;;;;;;10.77;10.03;;;;;;;13.23;69.11;93347.25;5068358;28;20213;-67
2022/10/31 03:17:54;;;;;;;11.07;10.07;;;;;;;13.25;69.37;93339.88;5068215;28;20189;-67
2022/10/31 03:20:26;;;;;;;9.80;9.00;;;;;;;13.32;68.63;93344.81;5068272;28;20216;-66
2022/10/31 03:22:52;;;;;;;11.40;10.40;;;;;;;13.25;69.64;93339.88;5067837;28;20270;-66
2022/10/31 03:25:18;;;;;;;11.20;10.47;;;;;;;13.29;69.23;93345.38;5069597;28;20196;-66
2022/10/31 03:27:45;;;;;;;10.93;10.13;;;;;;;13.35;68.71;93352.13;5067975;28;20173;-68
2022/10/31 03:30:11;;;;;;;11.90;10.80;;;;;;;13.24;68.91;93348.81;5068517;28;20213;-67
2022/10/31 03:32:44;;;;;;;12.53;10.17;;;;;;;13.28;69.01;93343.78;5068101;28;20212;-66
2022/10/31 03:35:12;;;;;;;10.93;10.20;;;;;;;13.18;68.59;93344.69;5068967;28;20205;-66
2022/10/31 03:37:40;;;;;;;11.17;10.47;;;;;;;13.30;68.69;93355.59;5068185;28;20196;-68
2022/10/31 03:40:07;;;;;;;11.57;10.47;;;;;;;13.42;68.11;93355.19;5068536;28;20213;-66
2022/10/31 03:42:36;;;;;;;11.10;10.17;;;;;;;13.43;68.84;93357.53;5068172;28;20209;-66
2022/10/31 03:45:15;;;;;;;10.27;9.57;;;;;;;13.35;68.39;93342.44;5068787;28;20236;-67
2022/10/31 03:47:43;;;;;;;11.00;10.20;;;;;;;13.46;68.31;93351.75;5070502;28;20655;-66
2022/10/31 03:50:10;;;;;;;10.27;9.43;;;;;;;13.53;68.64;93362.69;5090983;28;20212;-66
2022/10/31 03:52:46;;;;;;;10.90;9.97;;;;;;;13.49;69.29;93359.06;5089961;28;20203;-67
2022/10/31 03:55:29;;;;;;;11.70;10.63;;;;;;;13.44;69.34;93364.38;5089687;28;20216;-67
2022/10/31 03:58:03;;;;;;;10.17;9.53;;;;;;;13.34;69.75;93364.44;5089654;28;20280;-67
2022/10/31 04:00:31;;;;;;;10.93;10.27;;;;;;;13.24;69.66;93369.81;5090887;28;20204;-67
2022/10/31 04:03:19;;;;;;;11.40;10.50;;;;;;;13.16;70.18;93367.78;5088530;28;20230;-68
2022/10/31 04:05:47;;;;;;;10.57;9.93;;;;;;;13.03;71.21;93372.88;5077904;28;20189;-69
2022/10/31 04:08:17;;;;;;;11.70;10.63;;;;;;;12.80;72.05;93356.75;5074893;28;20249;-68
2022/10/31 04:10:45;;;;;;;12.70;11.63;;;;;;;12.88;72.28;93376.34;5067821;28;20194;-68
2022/10/31 04:13:15;;;;;;;12.07;10.93;;;;;;;12.74;72.52;93375.41;5067629;28;20233;-67
2022/10/31 04:15:43;;;;;;;10.00;9.37;;;;;;;12.63;72.85;93361.59;5069542;28;20193;-67
2022/10/31 04:18:08;;;;;;;13.43;12.20;;;;;;;12.70;72.58;93374.38;5069102;28;20217;-67
2022/10/31 04:20:40;;;;;;;11.83;11.10;;;;;;;12.69;72.67;93375.41;5070163;28;20189;-65
2022/10/31 04:23:18;;;;;;;11.83;10.83;;;;;;;12.67;73.32;93377.53;5070020;28;20316;-67
2022/10/31 04:25:44;;;;;;;12.57;11.63;;;;;;;12.78;73.10;93379.03;5069278;28;20241;-67
2022/10/31 04:28:09;;;;;;;15.20;11.87;;;;;;;12.73;73.85;93384.31;5068709;28;20226;-67
2022/10/31 04:30:34;;;;;;;14.00;12.57;;;;;;;12.71;74.38;93374.13;5069526;28;20194;-68
2022/10/31 04:33:00;;;;;;;12.87;11.87;;;;;;;12.65;74.76;93382.28;5068493;28;20229;-70
2022/10/31 04:35:25;;;;;;;12.03;10.77;;;;;;;12.60;75.48;93377.06;5069528;28;20181;-69
2022/10/31 04:37:51;;;;;;;11.37;10.40;;;;;;;12.59;75.56;93378.13;5067907;28;20181;-70
2022/10/31 04:40:16;;;;;;;12.20;11.30;;;;;;;12.55;75.58;93382.31;5069870;28;20200;-69
2022/10/31 04:42:41;;;;;;;12.33;11.33;;;;;;;12.56;75.64;93389.16;5069580;28;20816;-72
2022/10/31 04:45:07;;;;;;;12.40;11.50;;;;;;;12.47;75.04;93381.06;5068687;28;20239;-70
2022/10/31 04:47:33;;;;;;;11.17;10.37;;;;;;;12.50;75.20;93391.00;5069784;28;20196;-69
2022/10/31 04:49:59;;;;;;;13.53;12.57;;;;;;;12.52;75.45;93385.47;5070252;28;20229;-68
2022/10/31 04:52:24;;;;;;;12.57;11.60;;;;;;;12.66;75.17;93389.84;5070018;28;20228;-67
2022/10/31 04:54:50;;;;;;;12.13;11.27;;;;;;;12.54;75.95;93383.38;5069875;28;20243;-68
2022/10/31 04:57:15;;;;;;;11.03;10.03;;;;;;;12.44;76.03;93370.34;5069756;28;20197;-70
2022/10/31 04:59:40;;;;;;;13.53;11.63;;;;;;;12.49;76.12;93394.69;5068777;28;20301;-69
2022/10/31 05:02:06;;;;;;;12.07;11.17;;;;;;;12.46;76.66;93395.22;5070195;28;20228;-70
2022/10/31 05:04:31;;;;;;;12.43;11.57;;;;;;;12.38;76.60;93360.94;5070202;28;20218;-71
2022/10/31 05:06:56;;;;;;;12.70;11.37;;;;;;;12.63;76.00;93390.41;5069735;28;20222;-70
2022/10/31 05:09:21;;;;;;;14.07;12.70;;;;;;;12.62;76.38;93399.28;5069745;28;20236;-72
2022/10/31 05:11:47;;;;;;;12.30;11.27;;;;;;;12.64;76.45;93404.25;5069490;28;20200;-71
2022/10/31 05:14:12;;;;;;;12.73;11.60;;;;;;;12.64;76.19;93391.97;5078383;28;20316;-69
2022/10/31 05:16:37;;;;;;;12.93;11.87;;;;;;;12.83;75.48;93399.97;5087915;28;20192;-69
2022/10/31 05:19:03;;;;;;;12.70;11.60;;;;;;;12.77;74.78;93406.28;5088658;28;20299;-71
2022/10/31 05:21:28;;;;;;;12.70;11.50;;;;;;;12.78;74.71;93410.47;5088338;28;20220;-71
2022/10/31 05:23:53;;;;;;;13.77;12.67;;;;;;;12.96;74.40;93407.22;5088527;28;20247;-70
2022/10/31 05:26:19;;;;;;;14.77;11.90;;;;;;;13.05;74.19;93413.47;5088807;28;20196;-71
2022/10/31 05:28:44;;;;;;;13.10;11.93;;;;;;;12.99;74.78;93417.16;5085571;28;20281;-71
2022/10/31 05:31:10;;;;;;;12.63;11.73;;;;;;;13.00;74.79;93416.13;5085348;28;20184;-71
2022/10/31 05:33:35;;;;;;;13.53;12.40;;;;;;;13.00;75.22;93413.50;5087509;28;20280;-72
2022/10/31 05:36:00;;;;;;;14.73;12.53;;;;;;;13.03;74.49;93418.19;5089074;28;20215;-69
2022/10/31 05:38:26;;;;;;;12.43;11.50;;;;;;;12.97;74.94;93419.25;5086348;28;20217;-70
2022/10/31 05:40:57;;;;;;;13.33;12.13;;;;;;;12.91;75.95;93422.97;5076894;28;20182;-70
2022/10/31 05:43:22;;;;;;;12.67;11.87;;;;;;;12.88;76.47;93426.94;5074222;28;20225;-69
2022/10/31 05:45:52;;;;;;;13.20;11.90;;;;;;;12.74;77.27;93423.34;5069281;28;20669;-70
2022/10/31 05:48:17;;;;;;;13.10;12.03;;;;;;;12.71;76.98;93425.72;5071228;28;20276;-69
2022/10/31 05:50:42;;;;;;;13.67;12.53;;;;;;;12.63;77.75;93431.53;5077319;28;20173;-70
2022/10/31 05:53:08;;;;;;;14.13;12.70;;;;;;;12.54;78.03;93433.94;5077192;28;20228;-70
2022/10/31 05:55:33;;;;;;;15.47;13.77;;;;;;;12.52;77.63;93435.25;5069488;28;20177;-70
2022/10/31 05:57:59;;;;;;;16.93;13.53;;;;;;;12.52;76.57;93435.25;5068498;28;20272;-71
2022/10/31 06:00:25;;;;;;;13.97;12.80;;;;;;;12.54;77.01;93433.16;5068896;28;20196;-70
2022/10/31 06:03:01;;;;;;;21.90;13.40;;;;;;;12.53;78.29;93439.44;5068784;28;20213;-70
2022/10/31 06:05:27;;;;;;;13.90;12.60;;;;;;;12.68;78.01;93436.75;5069422;28;20249;-70
2022/10/31 06:07:52;;;;;;;15.43;13.87;;;;;;;12.77;76.57;93445.59;5068802;28;20216;-70
2022/10/31 06:10:19;;;;;;;15.73;14.03;;;;;;;12.72;76.88;93440.38;5069174;28;20201;-69
2022/10/31 06:12:44;;;;;;;14.87;13.57;;;;;;;12.68;76.87;93444.59;5068932;28;20236;-70
2022/10/31 06:15:09;;;;;;;15.03;13.77;;;;;;;12.78;76.58;93447.16;5090405;28;20243;-70
2022/10/31 06:17:35;;;;;;;16.97;13.57;;;;;;;12.85;75.96;93460.75;5089068;28;20192;-69
2022/10/31 06:20:01;;;;;;;14.50;13.20;;;;;;;12.85;75.64;93439.78;5088434;28;20224;-69
2022/10/31 06:22:27;;;;;;;15.90;14.33;;;;;;;12.98;75.32;93460.94;5089483;28;20223;-70
2022/10/31 06:24:52;;;;;;;15.60;14.10;;;;;;;13.00;75.67;93458.06;5071326;28;20232;-68
2022/10/31 06:27:18;;;;;;;16.63;14.50;;;;;;;13.05;74.92;93463.28;5069866;28;20185;-70
2022/10/31 06:29:45;;;;;;;17.50;15.20;;;;;;;13.21;74.38;93456.88;5069117;28;20225;-69
2022/10/31 06:32:11;;;;;;;16.00;14.43;;;;;;;13.43;73.73;93478.19;5068949;28;20196;-68
2022/10/31 06:34:37;;;;;;;16.37;14.17;;;;;;;13.25;75.25;93470.22;5068766;28;20288;-69
2022/10/31 06:37:02;;;;;;;17.00;13.87;;;;;;;13.24;74.58;93464.19;5069118;28;20185;-69
2022/10/31 06:39:28;;;;;;;16.63;15.00;;;;;;;13.33;74.42;93474.88;5076717;28;20699;-69
2022/10/31 06:41:53;;;;;;;15.77;14.27;;;;;;;13.11;76.04;93477.13;5080052;28;20225;-69
2022/10/31 06:44:18;;;;;;;18.70;15.70;;;;;;;13.25;75.48;93476.25;5071680;28;20228;-70
2022/10/31 06:46:46;;;;;;;17.97;16.13;;;;;;;13.22;75.30;93479.41;5069250;28;20178;-69
2022/10/31 06:49:12;;;;;;;16.43;14.53;;;;;;;13.38;74.85;93483.50;5076119;28;20241;-69
2022/10/31 06:51:37;;;;;;;16.97;15.27;;;;;;;13.34;75.05;93487.72;5078221;28;20188;-69
2022/10/31 06:54:03;;;;;;;21.80;15.90;;;;;;;13.61;73.63;93484.63;5073601;28;20293;-69
2022/10/31 06:56:28;;;;;;;17.10;15.00;;;;;;;13.72;73.06;93497.41;5069388;28;20253;-70
2022/10/31 06:58:53;;;;;;;19.30;16.10;;;;;;;13.89;71.81;93486.47;5068045;28;20223;-69
2022/10/31 07:01:19;;;;;;;18.40;16.43;;;;;;;13.91;71.83;93495.66;5069171;28;20205;-69
2022/10/31 07:03:44;;;;;;;18.77;16.43;;;;;;;13.80;72.60;93488.16;5068374;28;20247;-69
2022/10/31 07:06:09;;;;;;;18.80;15.10;;;;;;;13.73;73.87;93490.28;5069449;28;20204;-68
2022/10/31 07:08:34;;;;;;;19.07;14.93;;;;;;;13.75;73.86;93490.81;5075155;28;20228;-69
2022/10/31 07:11:00;;;;;;;18.60;15.80;;;;;;;13.96;71.82;93490.34;5089195;28;20189;-69
2022/10/31 07:13:25;;;;;;;16.17;14.70;;;;;;;14.32;69.86;93496.03;5086166;28;20247;-69
2022/10/31 07:15:59;;;;;;;17.57;15.77;;;;;;;14.22;70.53;93496.13;5089050;28;20181;-70
2022/10/31 07:18:24;;;;;;;19.20;15.67;;;;;;;14.16;70.51;93494.63;5083938;28;20225;-68
2022/10/31 07:20:51;;;;;;;18.63;14.83;;;;;;;14.14;70.88;93491.50;5072338;28;20203;-66
2022/10/31 07:23:16;;;;;;;19.07;14.40;;;;;;;14.13;71.05;93493.31;5072466;28;20297;-67
2022/10/31 07:25:41;;;;;;;17.80;16.00;;;;;;;14.07;71.63;93480.53;5070405;28;20236;-66
2022/10/31 07:28:08;;;;;;;17.17;15.27;;;;;;;14.26;71.37;93484.03;5074904;28;20228;-67
2022/10/31 07:30:33;;;;;;;20.87;15.90;;;;;;;14.34;70.22;93451.91;5090987;28;20196;-68
2022/10/31 07:32:58;;;;;;;19.80;16.10;;;;;;;14.66;69.45;93477.53;5090475;28;20197;-68
2022/10/31 07:35:26;;;;;;;17.90;16.10;;;;;;;14.23;71.01;93471.44;5087770;28;20189;-68
2022/10/31 07:37:52;;;;;;;17.63;15.83;;;;;;;14.41;70.63;93457.63;5090036;28;20195;-68
2022/10/31 07:40:18;;;;;;;24.73;17.37;;;;;;;14.66;69.49;93470.44;5081144;28;20208;-68
2022/10/31 07:42:46;;;;;;;23.83;17.93;;;;;;;14.69;69.15;93480.41;5078389;28;20216;-71
2022/10/31 07:45:13;;;;;;;23.83;17.20;;;;;;;14.52;69.58;93468.78;5070573;28;20757;-71
2022/10/31 07:47:45;;;;;;;18.43;15.87;;;;;;;14.92;68.31;93484.03;5071002;28;20189;-70
2022/10/31 07:50:17;;;;;;;20.03;16.57;;;;;;;15.18;67.31;93475.50;5069437;28;20335;-71
2022/10/31 07:52:42;;;;;;;18.67;16.73;;;;;;;15.02;67.60;93483.91;5069976;28;20193;-70
2022/10/31 07:55:08;;;;;;;18.83;16.83;;;;;;;15.19;67.04;93481.56;5090556;28;20193;-69
2022/10/31 07:57:33;;;;;;;25.93;18.47;;;;;;;15.17;67.31;93484.47;5090261;28;20188;-68
2022/10/31 07:59:59;;;;;;;22.67;17.63;;;;;;;15.11;67.69;93484.84;5089662;28;20232;-71
2022/10/31 08:02:25;;;;;;;39.03;22.07;;;;;;;15.51;66.12;93484.25;5090607;28;20227;-68
2022/10/31 08:04:51;;;;;;;240.77;75.67;;;;;;;15.77;65.17;93482.78;5087964;28;20235;-68
2022/10/31 08:07:17;;;;;;;101.60;41.90;;;;;;;15.74;64.63;93486.00;5089994;28;20176;-68
2022/10/31 08:09:42;;;;;;;35.97;21.73;;;;;;;15.66;64.95;93490.06;5077733;28;20235;-68
2022/10/31 08:12:08;;;;;;;24.67;19.20;;;;;;;15.46;66.01;93494.84;5076507;28;20185;-71
2022/10/31 08:14:33;;;;;;;21.20;16.83;;;;;;;15.52;65.59;93485.81;5070940;28;20236;-69
2022/10/31 08:16:58;;;;;;;18.63;16.73;;;;;;;15.39;66.52;93482.06;5070083;28;20216;-70
2022/10/31 08:19:24;;;;;;;19.27;16.13;;;;;;;15.53;66.42;93490.03;5069640;28;20229;-70
2022/10/31 08:21:54;;;;;;;18.37;15.80;;;;;;;15.69;65.97;93478.97;5071159;28;21159;-70
2022/10/31 08:24:21;;;;;;;18.70;15.90;;;;;;;15.87;64.94;93483.41;5074997;28;20311;-69
2022/10/31 08:26:46;;;;;;;25.53;17.37;;;;;;;16.05;64.77;93487.03;5082991;28;20165;-70
2022/10/31 08:29:12;;;;;;;19.93;15.73;;;;;;;16.14;63.96;93484.53;5071959;28;20247;-68
2022/10/31 08:31:38;;;;;;;22.07;16.57;;;;;;;16.24;63.42;93489.59;5069816;28;20177;-69
2022/10/31 08:34:03;;;;;;;20.23;17.03;;;;;;;16.18;63.76;93496.03;5069762;28;21850;-69
2022/10/31 08:36:29;;;;;;;21.33;17.13;;;;;;;16.16;64.27;93493.69;5069605;28;20178;-68
2022/10/31 08:38:54;;;;;;;22.03;17.03;;;;;;;16.24;62.88;93489.59;5069065;28;20218;-68
2022/10/31 08:41:20;;;;;;;17.10;15.27;;;;;;;16.17;63.25;93489.22;5070503;28;20220;-68
2022/10/31 08:43:46;;;;;;;18.30;16.50;;;;;;;16.03;64.09;93497.13;5070218;28;21112;-68
2022/10/31 08:46:11;;;;;;;17.67;15.50;;;;;;;16.12;63.92;93495.38;5068907;28;20204;-69
2022/10/31 08:48:37;;;;;;;20.03;16.40;;;;;;;16.15;63.94;93500.06;5069187;28;20244;-69
2022/10/31 08:51:02;;;;;;;21.07;16.37;;;;;;;16.05;64.06;93487.84;5070324;28;20226;-69
2022/10/31 08:53:28;;;;;;;19.20;17.20;;;;;;;16.21;63.71;93490.97;5069925;28;20225;-68
2022/10/31 08:55:55;;;;;;;26.53;16.40;;;;;;;16.49;62.61;93489.97;5070600;28;20192;-68
2022/10/31 08:58:21;;;;;;;26.00;17.00;;;;;;;16.43;62.30;93462.13;5074934;28;20228;-69
2022/10/31 09:00:49;;;;;;;21.83;16.10;;;;;;;16.88;61.33;93492.88;5089544;28;20207;-69
2022/10/31 09:03:26;;;;;;;24.63;16.23;;;;;;;16.75;61.75;93493.66;5089109;28;20248;-69
2022/10/31 09:05:55;;;;;;;19.93;16.47;;;;;;;16.88;61.82;93490.25;5088619;28;20221;-69
2022/10/31 09:08:20;;;;;;;21.20;17.33;;;;;;;17.00;61.58;93487.88;5083031;28;20244;-68
2022/10/31 09:10:46;;;;;;;22.33;17.40;;;;;;;16.86;61.72;93488.97;5069428;28;20215;-67
2022/10/31 09:13:17;;;;;;;22.93;15.70;;;;;;;16.79;62.34;93492.00;5069056;28;20279;-70
2022/10/31 09:15:45;;;;;;;16.23;14.57;;;;;;;16.72;62.22;93448.63;5068749;28;20282;-70
2022/10/31 09:18:12;;;;;;;21.10;15.10;;;;;;;17.20;61.38;93476.88;5067528;28;20392;-70
2022/10/31 09:20:39;;;;;;;16.13;14.33;;;;;;;17.26;60.88;93488.88;5069384;28;20189;-70
2022/10/31 09:23:11;;;;;;;16.27;13.87;;;;;;;17.51;60.07;93490.97;5068947;28;20229;-70
2022/10/31 09:25:36;;;;;;;16.60;14.90;;;;;;;17.77;59.04;93491.19;5069224;28;21153;-69
2022/10/31 09:28:04;;;;;;;14.80;12.73;;;;;;;18.07;58.34;93489.66;5067400;28;20245;-70
2022/10/31 09:30:32;;;;;;;14.10;11.90;;;;;;;18.16;57.21;93490.47;5066679;28;20228;-68
2022/10/31 09:33:04;;;;;;;14.23;12.00;;;;;;;18.17;56.32;93492.81;5067208;28;20200;-69
2022/10/31 09:35:30;;;;;;;11.90;10.67;;;;;;;18.34;55.69;93494.75;5068057;28;20190;-70
2022/10/31 09:38:00;;;;;;;12.40;9.50;;;;;;;18.25;55.57;93491.31;5068753;28;20189;-70
2022/10/31 09:40:40;;;;;;;10.30;9.33;;;;;;;18.36;54.48;93495.25;5069217;28;20187;-71
2022/10/31 09:43:20;;;;;;;10.47;9.57;;;;;;;18.32;54.16;93499.59;5067362;28;20241;-71
2022/10/31 09:46:33;;;;;;;9.00;8.30;;;;;;;18.45;54.18;93496.88;5069168;28;20193;-71
2022/10/31 09:49:21;;;;;;;12.33;11.03;;;;;;;18.67;53.85;93499.47;5078351;28;20293;-70
2022/10/31 09:51:55;;;;;;;10.50;9.43;;;;;;;18.55;53.51;93487.91;5089135;28;20195;-71
2022/10/31 09:54:42;;;;;;;9.43;8.83;;;;;;;18.55;52.57;93498.47;5083607;28;20224;-71
2022/10/31 09:57:14;;;;;;;9.17;8.43;;;;;;;18.56;51.87;93502.69;5078790;28;20189;-70
2022/10/31 09:59:43;;;;;;;9.00;8.40;;;;;;;18.49;51.80;93492.53;5070259;28;20293;-71
2022/10/31 10:02:33;;;;;;;9.57;8.87;;;;;;;18.50;51.72;93495.97;5068164;28;20226;-71
2022/10/31 10:05:11;;;;;;;9.63;8.70;;;;;;;18.93;50.72;93491.59;5065926;28;20252;-72
2022/10/31 10:07:52;;;;;;;9.20;8.40;;;;;;;18.85;51.94;93479.09;5068206;28;20185;-71
2022/10/31 10:10:20;;;;;;;8.93;8.33;;;;;;;18.63;50.15;93481.88;5099719;28;20223;-72
2022/10/31 10:13:15;;;;;;;10.03;8.63;;;;;;;18.89;50.07;93480.06;5067114;28;20185;-74
2022/10/31 10:16:15;;;;;;;8.70;7.87;;;;;;;18.75;50.50;93479.41;5070313;28;20229;-76
2022/10/31 10:18:55;;;;;;;12.80;7.40;;;;;;;18.92;50.53;93474.16;5076182;28;20237;-67
2022/10/31 10:21:42;;;;;;;9.67;8.93;;;;;;;19.16;50.25;93477.94;5089172;28;20350;-67
2022/10/31 10:24:39;;;;;;;11.70;9.10;;;;;;;19.30;49.92;93469.13;5084965;28;20789;-67
2022/10/31 10:27:41;;;;;;;10.90;9.17;;;;;;;19.27;49.63;93469.69;5089178;28;20181;-68
2022/10/31 10:30:30;;;;;;;10.70;9.80;;;;;;;19.27;48.75;93465.16;5087482;28;20887;-68
2022/10/31 10:33:00;;;;;;;11.70;8.93;;;;;;;19.12;48.56;93469.06;5086534;28;20190;-68
2022/10/31 10:35:46;;;;;;;10.57;8.40;;;;;;;19.07;49.65;93465.78;5078104;28;20273;-67
2022/10/31 10:38:23;;;;;;;9.70;8.93;;;;;;;19.24;49.56;93449.91;5073540;28;20285;-67
2022/10/31 10:40:48;;;;;;;9.17;8.43;;;;;;;19.27;48.81;93454.56;5068323;28;20253;-67
2022/10/31 10:43:32;;;;;;;9.13;8.53;;;;;;;19.27;48.46;93448.53;5072003;28;20248;-66
2022/10/31 10:48:59;;;;;;;9.60;8.80;;;;;;;19.52;47.76;93445.88;5080632;28;20233;-65
2022/10/31 10:51:44;;;;;;;9.70;9.10;;;;;;;19.44;48.01;93449.31;5078919;28;20195;-66
2022/10/31 10:54:38;;;;;;;9.13;8.63;;;;;;;19.59;47.74;93448.84;5072429;28;20289;-65
2022/10/31 10:57:12;;;;;;;9.73;8.80;;;;;;;19.63;48.31;93454.28;5073124;28;20223;-66
2022/10/31 10:59:38;;;;;;;8.77;8.03;;;;;;;19.59;47.32;93440.13;5071399;28;20238;-69
2022/10/31 11:02:15;;;;;;;11.87;9.03;;;;;;;19.74;47.81;93450.22;5072829;28;20241;-68
2022/10/31 11:04:42;;;;;;;8.23;7.73;;;;;;;19.61;46.79;93446.66;5080841;28;20234;-67
2022/10/31 11:07:10;;;;;;;9.30;8.50;;;;;;;19.79;46.94;93437.59;5080959;28;20216;-68
2022/10/31 11:09:36;;;;;;;10.63;9.70;;;;;;;19.83;48.22;93435.88;5073912;28;20257;-67
2022/10/31 11:12:16;;;;;;;8.87;8.27;;;;;;;19.81;47.06;93438.09;5071160;28;20696;-68
2022/10/31 11:14:49;;;;;;;9.37;8.60;;;;;;;19.93;46.74;93424.94;5089041;28;20234;-69
2022/10/31 11:17:36;;;;;;;8.83;7.60;;;;;;;20.10;47.63;93430.19;5090755;28;20224;-69
2022/10/31 11:20:05;;;;;;;9.03;8.40;;;;;;;20.16;47.08;93426.31;5091307;28;20220;-71
2022/10/31 11:22:30;;;;;;;8.70;8.00;;;;;;;20.00;46.50;93430.53;5090113;28;20210;-72
2022/10/31 11:24:56;;;;;;;7.47;7.07;;;;;;;19.89;46.34;93424.00;5083619;28;20956;-71
2022/10/31 11:27:24;;;;;;;8.90;8.33;;;;;;;19.84;46.96;93421.53;5082381;28;20171;-71
2022/10/31 11:29:50;;;;;;;8.00;7.40;;;;;;;19.92;47.34;93417.31;5072911;28;20263;-71
2022/10/31 11:32:22;;;;;;;9.10;8.30;;;;;;;20.00;46.62;93414.63;5071450;28;20179;-71
2022/10/31 11:34:54;;;;;;;9.07;8.23;;;;;;;20.24;46.19;93414.91;5091477;28;20259;-70
2022/10/31 11:37:35;;;;;;;10.30;8.47;;;;;;;20.02;45.57;93382.50;5090341;28;20195;-70